Time;durP1;ratioP1;P1;durP2;ratioP2;P2;SDS_P1;SDS_P2;PMS_P1;PMS_P2;Temp;Humidity;BMP_temperature;BMP_pressure;BME280_temperature;BME280_humidity;BME280_pressure;Samples;Min_cycle;Max_cycle;Signal;HPM_P1;HPM_P2
2022/10/11 00:02:10;;;;;;;5.93;1.58;;;;;;;;;;5111655;27;20134;-85
2022/10/11 00:05:12;;;;;;;7.15;1.88;;;;;;;;;;5112816;28;20097;-82
2022/10/11 00:07:40;;;;;;;8.63;1.58;;;;;;;;;;5120905;27;20063;-82
2022/10/11 00:10:14;;;;;;;6.07;1.50;;;;;;;;;;5123650;27;20606;-83
2022/10/11 00:12:57;;;;;;;7.82;1.80;;;;;;;;;;5079853;28;20063;-84
2022/10/11 00:15:48;;;;;;;4.88;1.50;;;;;;;;;;5106261;28;20186;-82
2022/10/11 00:18:21;;;;;;;7.88;1.63;;;;;;;;;;5104211;28;20055;-82
2022/10/11 00:20:48;;;;;;;6.35;1.30;;;;;;;;;;5110016;27;20043;-81
2022/10/11 00:23:16;;;;;;;6.13;1.40;;;;;;;;;;5094071;28;20055;-83
2022/10/11 00:25:55;;;;;;;10.52;1.70;;;;;;;;;;5112390;27;20040;-83
2022/10/11 00:28:42;;;;;;;6.25;1.45;;;;;;;;;;5098308;28;20039;-84
2022/10/11 00:31:15;;;;;;;8.07;1.83;;;;;;;;;;5077040;28;20085;-84
2022/10/11 00:33:56;;;;;;;8.13;1.52;;;;;;;;;;5079922;28;20055;-83
2022/10/11 00:36:41;;;;;;;11.70;2.00;;;;;;;;;;5123751;27;20051;-82
2022/10/11 00:39:12;;;;;;;5.05;1.45;;;;;;;;;;5114600;27;20076;-83
2022/10/11 00:41:42;;;;;;;10.57;1.88;;;;;;;;;;5144935;27;20525;-83
2022/10/11 00:44:31;;;;;;;11.20;1.52;;;;;;;;;;5105197;27;20051;-84
2022/10/11 00:52:56;;;;;;;8.02;1.58;;;;;;;;;;5068382;28;20079;-84
2022/10/11 00:56:43;;;;;;;9.52;1.45;;;;;;;;;;5077351;28;20058;-83
2022/10/11 01:00:11;;;;;;;6.30;1.63;;;;;;;;;;5074456;28;20412;-84
2022/10/11 01:03:35;;;;;;;7.60;1.58;;;;;;;;;;5018452;28;21021;-84
2022/10/11 01:12:01;;;;;;;7.05;1.55;;;;;;;;;;4928088;28;20054;-84
2022/10/11 01:15:07;;;;;;;11.60;1.58;;;;;;;;;;4968376;28;20069;-83
2022/10/11 01:18:53;;;;;;;6.18;1.63;;;;;;;;;;4958609;28;20047;-84
2022/10/11 01:21:56;;;;;;;7.72;1.70;;;;;;;;;;4975879;28;20070;-84
2022/10/11 01:25:53;;;;;;;9.35;1.58;;;;;;;;;;4936131;29;20119;-84
2022/10/11 01:30:23;;;;;;;8.85;1.30;;;;;;;;;;4905670;29;20052;-84
2022/10/11 01:33:19;;;;;;;11.65;1.80;;;;;;;;;;4884594;29;20633;-83
2022/10/11 01:36:38;;;;;;;6.72;1.70;;;;;;;;;;4939952;28;20211;-84
2022/10/11 01:40:38;;;;;;;10.73;1.75;;;;;;;;;;4999571;28;20472;-84
2022/10/11 01:43:51;;;;;;;4.80;1.50;;;;;;;;;;5001239;28;20061;-84
2022/10/11 01:47:31;;;;;;;11.10;1.70;;;;;;;;;;4990436;28;20062;-84
2022/10/11 01:51:06;;;;;;;9.02;1.60;;;;;;;;;;5032983;28;20837;-84
2022/10/11 01:54:29;;;;;;;9.20;1.98;;;;;;;;;;5025058;28;20049;-84
2022/10/11 01:57:44;;;;;;;5.72;2.17;;;;;;;;;;5050112;28;20220;-83
2022/10/11 02:00:32;;;;;;;6.75;1.50;;;;;;;;;;5059498;28;20146;-84
2022/10/11 02:03:51;;;;;;;7.03;1.42;;;;;;;;;;5096374;27;20782;-83
2022/10/11 02:06:55;;;;;;;7.90;2.00;;;;;;;;;;5110475;27;20054;-84
2022/10/11 02:10:06;;;;;;;8.50;1.67;;;;;;;;;;5119634;27;20043;-83
2022/10/11 02:13:07;;;;;;;5.53;1.70;;;;;;;;;;5116146;27;20062;-83
2022/10/11 02:21:23;;;;;;;8.02;1.45;;;;;;;;;;5074078;28;20385;-84
2022/10/11 02:24:36;;;;;;;7.13;1.75;;;;;;;;;;5056795;28;20633;-83
2022/10/11 02:27:21;;;;;;;5.45;1.95;;;;;;;;;;5026420;28;20697;-83
2022/10/11 02:31:09;;;;;;;4.00;1.52;;;;;;;;;;5053923;28;20067;-84
2022/10/11 02:34:01;;;;;;;7.65;1.50;;;;;;;;;;5023011;28;20086;-84
2022/10/11 02:37:04;;;;;;;5.38;1.48;;;;;;;;;;5040397;28;20471;-83
2022/10/11 02:40:14;;;;;;;6.32;1.35;;;;;;;;;;5039325;28;20080;-84
2022/10/11 02:43:22;;;;;;;8.10;1.73;;;;;;;;;;5052472;28;20436;-84
2022/10/11 02:46:47;;;;;;;6.10;1.42;;;;;;;;;;5070710;27;20061;-84
2022/10/11 02:50:44;;;;;;;7.57;1.77;;;;;;;;;;5115562;27;20047;-84
2022/10/11 02:53:46;;;;;;;7.10;1.58;;;;;;;;;;5131799;27;20051;-84
2022/10/11 02:56:32;;;;;;;6.10;1.77;;;;;;;;;;5119375;27;20076;-83
2022/10/11 02:59:40;;;;;;;6.85;1.45;;;;;;;;;;5136368;27;20071;-84
2022/10/11 03:02:22;;;;;;;12.23;1.95;;;;;;;;;;5082773;28;20047;-83
2022/10/11 03:06:03;;;;;;;9.98;1.83;;;;;;;;;;5123762;28;20039;-84
2022/10/11 03:09:24;;;;;;;10.48;1.73;;;;;;;;;;5123877;27;20039;-84
2022/10/11 03:13:04;;;;;;;10.25;1.90;;;;;;;;;;5125337;27;20054;-84
2022/10/11 03:15:53;;;;;;;8.52;1.50;;;;;;;;;;5077782;28;20063;-83
2022/10/11 03:18:44;;;;;;;8.40;1.67;;;;;;;;;;5087348;28;20111;-83
2022/10/11 03:21:30;;;;;;;6.68;2.10;;;;;;;;;;5090931;28;20044;-83
2022/10/11 03:24:11;;;;;;;8.10;1.40;;;;;;;;;;5072208;28;20187;-84
2022/10/11 03:27:56;;;;;;;10.43;1.50;;;;;;;;;;5091253;28;20094;-85
2022/10/11 03:31:37;;;;;;;9.40;2.05;;;;;;;;;;5090057;28;20051;-84
2022/10/11 03:34:20;;;;;;;7.38;1.42;;;;;;;;;;5083541;28;20131;-83
2022/10/11 03:37:02;;;;;;;11.00;1.92;;;;;;;;;;5089701;28;20044;-83
2022/10/11 03:39:45;;;;;;;4.80;1.65;;;;;;;;;;5073377;28;20052;-83
2022/10/11 03:42:28;;;;;;;8.75;1.95;;;;;;;;;;5071370;28;20131;-83
2022/10/11 03:45:50;;;;;;;6.53;1.70;;;;;;;;;;5096911;28;20139;-84
2022/10/11 03:49:52;;;;;;;9.52;1.80;;;;;;;;;;5039118;28;20542;-84
2022/10/11 03:53:00;;;;;;;9.35;1.63;;;;;;;;;;5065814;28;20079;-84
2022/10/11 03:55:42;;;;;;;12.60;2.17;;;;;;;;;;5075548;28;20082;-84
2022/10/11 03:59:07;;;;;;;11.90;1.63;;;;;;;;;;5081117;28;20048;-84
2022/10/11 04:02:12;;;;;;;7.57;2.00;;;;;;;;;;5083574;28;20120;-84
2022/10/11 04:05:00;;;;;;;3.50;1.50;;;;;;;;;;5069520;28;20047;-82
2022/10/11 04:07:36;;;;;;;8.15;1.80;;;;;;;;;;5076352;28;20537;-83
2022/10/11 04:10:18;;;;;;;5.40;1.48;;;;;;;;;;5093190;28;20813;-83
2022/10/11 04:13:10;;;;;;;6.80;1.48;;;;;;;;;;5094867;28;20044;-84
2022/10/11 04:15:52;;;;;;;5.60;2.10;;;;;;;;;;5090950;28;20048;-83
2022/10/11 04:18:56;;;;;;;8.23;1.60;;;;;;;;;;5082163;27;20105;-84
2022/10/11 04:22:22;;;;;;;9.80;1.48;;;;;;;;;;5134889;27;20039;-83
2022/10/11 04:25:32;;;;;;;7.53;1.50;;;;;;;;;;5111516;27;20108;-84
2022/10/11 04:29:13;;;;;;;7.88;1.40;;;;;;;;;;5081910;28;20128;-84
2022/10/11 04:32:09;;;;;;;11.75;1.52;;;;;;;;;;5078974;28;21322;-84
2022/10/11 04:40:59;;;;;;;12.45;1.63;;;;;;;;;;5046392;28;20211;-84
2022/10/11 04:44:39;;;;;;;9.52;1.55;;;;;;;;;;5049882;28;20053;-84
2022/10/11 04:48:09;;;;;;;4.20;1.50;;;;;;;;;;5043704;28;20095;-84
2022/10/11 04:50:56;;;;;;;7.25;1.75;;;;;;;;;;5020131;28;20052;-83
2022/10/11 04:53:56;;;;;;;5.97;1.58;;;;;;;;;;5029723;28;20608;-84
2022/10/11 04:57:06;;;;;;;7.03;1.77;;;;;;;;;;5033617;28;20057;-84
2022/10/11 05:00:33;;;;;;;13.45;2.45;;;;;;;;;;5036042;28;20048;-84
2022/10/11 05:03:22;;;;;;;7.88;1.35;;;;;;;;;;5040293;28;20057;-83
2022/10/11 05:12:05;;;;;;;8.25;1.52;;;;;;;;;;4947987;28;20043;-83
2022/10/11 05:15:52;;;;;;;9.80;2.88;;;;;;;;;;4963178;28;20130;-84
2022/10/11 05:19:10;;;;;;;9.05;1.70;;;;;;;;;;5002634;28;20077;-83
2022/10/11 05:21:53;;;;;;;7.50;1.80;;;;;;;;;;4981919;28;20047;-83
2022/10/11 05:24:36;;;;;;;7.45;1.80;;;;;;;;;;5012003;28;20513;-83
2022/10/11 05:27:17;;;;;;;6.85;1.50;;;;;;;;;;5008767;28;20591;-83
2022/10/11 05:30:00;;;;;;;5.57;1.83;;;;;;;;;;5012191;28;20097;-83
2022/10/11 05:32:42;;;;;;;6.88;1.70;;;;;;;;;;5013585;28;20461;-83
2022/10/11 05:35:23;;;;;;;9.68;1.73;;;;;;;;;;5012111;28;20117;-83
2022/10/11 05:38:06;;;;;;;5.53;1.83;;;;;;;;;;5011861;28;20050;-83
2022/10/11 05:52:25;;;;;;;7.68;1.98;;;;;;;;;;4909152;29;20048;-84
2022/10/11 06:01:25;;;;;;;9.50;1.90;;;;;;;;;;4891927;29;20250;-83
2022/10/11 06:04:17;;;;;;;3.83;1.55;;;;;;;;;;4913424;29;20142;-83
2022/10/11 06:07:10;;;;;;;6.20;2.10;;;;;;;;;;4929233;29;20044;-82
2022/10/11 06:15:31;;;;;;;12.10;2.13;;;;;;;;;;4913085;28;20254;-84
2022/10/11 06:19:16;;;;;;;5.70;2.08;;;;;;;;;;4972437;28;20047;-84
2022/10/11 06:23:18;;;;;;;6.05;1.90;;;;;;;;;;5031134;28;20558;-84
2022/10/11 06:26:35;;;;;;;10.80;2.42;;;;;;;;;;5047889;28;20052;-84
2022/10/11 06:29:41;;;;;;;10.47;2.23;;;;;;;;;;5046627;28;20044;-84
2022/10/11 06:33:22;;;;;;;8.68;2.88;;;;;;;;;;5080175;28;20058;-84
2022/10/11 06:36:50;;;;;;;9.20;2.70;;;;;;;;;;5067121;28;20071;-85
2022/10/11 06:40:33;;;;;;;7.32;2.75;;;;;;;;;;5071612;28;20435;-84
2022/10/11 06:44:01;;;;;;;5.60;2.33;;;;;;;;;;5058306;28;20063;-83
2022/10/11 06:47:36;;;;;;;7.25;2.60;;;;;;;;;;5077033;28;20550;-84
2022/10/11 06:50:45;;;;;;;8.32;2.40;;;;;;;;;;5058171;28;20060;-84
2022/10/11 06:53:49;;;;;;;6.28;2.30;;;;;;;;;;5068429;28;20044;-85
2022/10/11 06:56:51;;;;;;;14.07;3.83;;;;;;;;;;5075726;28;20055;-84
2022/10/11 06:59:20;;;;;;;12.02;4.78;;;;;;;;;;5065473;28;20163;-82
2022/10/11 07:01:50;;;;;;;13.55;4.22;;;;;;;;;;5063886;28;20051;-82
2022/10/11 07:04:22;;;;;;;12.25;3.45;;;;;;;;;;5084533;28;20056;-82
2022/10/11 07:06:50;;;;;;;11.90;3.97;;;;;;;;;;5060732;28;20072;-81
2022/10/11 07:09:17;;;;;;;19.02;4.05;;;;;;;;;;5082826;28;20063;-82
2022/10/11 07:11:48;;;;;;;7.90;3.22;;;;;;;;;;5082452;28;20289;-82
2022/10/11 07:14:19;;;;;;;7.85;3.10;;;;;;;;;;5085841;28;20071;-83
2022/10/11 07:17:12;;;;;;;11.25;3.60;;;;;;;;;;5060008;28;20079;-83
2022/10/11 07:19:55;;;;;;;11.77;3.35;;;;;;;;;;5082866;28;20036;-82
2022/10/11 07:23:02;;;;;;;12.23;3.20;;;;;;;;;;5088652;28;20139;-86
2022/10/11 07:26:44;;;;;;;9.90;2.67;;;;;;;;;;5050332;28;20124;-83
2022/10/11 07:58:48;;;;;;;8.70;1.83;;;;;;;;;;5044823;28;20115;-87
2022/10/11 08:02:45;;;;;;;10.75;2.72;;;;;;;;;;5031953;28;20725;-85
2022/10/11 08:05:38;;;;;;;9.90;2.03;;;;;;;;;;5047558;28;20139;-82
2022/10/11 08:08:25;;;;;;;10.27;1.70;;;;;;;;;;5018019;28;20394;-83
2022/10/11 08:11:06;;;;;;;9.82;1.90;;;;;;;;;;5025335;28;20068;-83
2022/10/11 08:13:58;;;;;;;12.02;2.33;;;;;;;;;;5047075;28;20197;-83
2022/10/11 08:27:07;;;;;;;13.98;2.30;;;;;;;;;;5044654;28;20094;-84
2022/10/11 08:29:50;;;;;;;12.60;2.25;;;;;;;;;;5026350;28;20057;-83
2022/10/11 08:32:48;;;;;;;11.35;2.10;;;;;;;;;;5028439;28;20056;-83
2022/10/11 08:35:31;;;;;;;12.70;2.00;;;;;;;;;;5026609;28;20052;-83
2022/10/11 08:38:14;;;;;;;15.10;2.33;;;;;;;;;;5013207;28;20049;-83
2022/10/11 08:41:06;;;;;;;12.80;3.25;;;;;;;;;;5014922;28;20561;-83
2022/10/11 08:50:16;;;;;;;12.85;1.90;;;;;;;;;;5027259;28;20420;-85
2022/10/11 08:54:46;;;;;;;8.73;1.60;;;;;;;;;;5006202;28;20050;-84
2022/10/11 08:59:05;;;;;;;8.20;1.25;;;;;;;;;;5008296;28;20049;-85
2022/10/11 09:03:10;;;;;;;10.70;1.48;;;;;;;;;;5048536;28;20573;-85
2022/10/11 09:06:58;;;;;;;10.82;1.80;;;;;;;;;;5043028;28;20041;-83
2022/10/11 09:10:59;;;;;;;8.65;1.33;;;;;;;;;;5039325;28;20502;-85
2022/10/11 09:15:32;;;;;;;9.38;1.73;;;;;;;;;;5004935;28;20045;-85
2022/10/11 09:20:10;;;;;;;10.15;1.45;;;;;;;;;;4987561;28;20834;-84
2022/10/11 09:23:40;;;;;;;8.38;1.50;;;;;;;;;;4901108;29;20636;-83
2022/10/11 09:27:57;;;;;;;11.60;2.00;;;;;;;;;;4889843;29;20127;-85
2022/10/11 09:32:26;;;;;;;13.00;1.80;;;;;;;;;;4892875;29;20048;-84
2022/10/11 09:37:10;;;;;;;7.07;1.60;;;;;;;;;;4873705;29;20159;-85
2022/10/11 09:41:55;;;;;;;7.20;1.63;;;;;;;;;;4888529;29;20139;-85
2022/10/11 09:51:01;;;;;;;15.63;1.70;;;;;;;;;;4769811;29;20024;-85
2022/10/11 09:54:44;;;;;;;13.43;1.65;;;;;;;;;;4723909;30;20056;-83
2022/10/11 09:58:05;;;;;;;10.45;1.58;;;;;;;;;;4717404;30;20068;-84
2022/10/11 10:01:43;;;;;;;13.57;2.58;;;;;;;;;;4742078;30;20044;-83
2022/10/11 10:05:42;;;;;;;7.88;1.60;;;;;;;;;;4750271;30;20047;-82
2022/10/11 10:09:35;;;;;;;9.73;1.45;;;;;;;;;;4739272;30;20055;-84
2022/10/11 10:13:45;;;;;;;6.60;1.75;;;;;;;;;;4753440;30;20052;-84
2022/10/11 10:16:29;;;;;;;11.68;1.58;;;;;;;;;;4753106;30;20048;-83
2022/10/11 10:19:00;;;;;;;15.93;1.58;;;;;;;;;;4784776;29;20045;-84
2022/10/11 10:21:47;;;;;;;7.53;1.55;;;;;;;;;;4841965;29;20077;-82
2022/10/11 10:24:32;;;;;;;7.82;1.20;;;;;;;;;;4856040;28;20056;-84
2022/10/11 10:52:11;;;;;;;10.93;1.98;;;;;;;;;;5085428;28;20070;-87
2022/10/11 11:10:45;;;;;;;9.60;1.20;;;;;;;;;;5102981;28;20075;-87
2022/10/11 11:15:05;;;;;;;13.52;1.60;;;;;;;;;;5107300;28;20146;-87
2022/10/11 11:19:49;;;;;;;5.93;1.40;;;;;;;;;;5048534;28;20043;-87
2022/10/11 11:28:29;;;;;;;16.98;3.60;;;;;;;;;;5064594;28;20063;-84
2022/10/11 11:36:43;;;;;;;10.45;2.55;;;;;;;;;;5044579;28;20084;-85
2022/10/11 11:40:06;;;;;;;11.85;3.33;;;;;;;;;;5037015;28;20150;-85
2022/10/11 11:43:50;;;;;;;11.00;1.77;;;;;;;;;;5049673;28;20044;-85
2022/10/11 11:48:15;;;;;;;7.50;3.45;;;;;;;;;;5005584;28;20065;-85
2022/10/11 11:52:58;;;;;;;11.13;2.20;;;;;;;;;;4968538;28;20227;-84
2022/10/11 11:56:08;;;;;;;12.65;2.38;;;;;;;;;;4966178;28;20061;-84
2022/10/11 11:59:29;;;;;;;11.45;1.88;;;;;;;;;;4950001;28;20058;-82
2022/10/11 12:03:36;;;;;;;9.52;1.67;;;;;;;;;;4967988;28;20411;-84
2022/10/11 12:06:57;;;;;;;9.30;1.60;;;;;;;;;;4934548;29;21425;-85
2022/10/11 21:03:27;;;;;;;23.63;10.18;;;;;;;;;;5084553;28;20048;-85
2022/10/11 21:06:35;;;;;;;18.33;7.65;;;;;;;;;;5049001;28;20089;-85
2022/10/11 21:09:21;;;;;;;14.77;6.85;;;;;;;;;;5043153;28;20052;-84
2022/10/11 21:12:48;;;;;;;;;;;;;;;;;;5071270;28;20040;-84
2022/10/11 21:15:46;;;;;;;21.15;7.80;;;;;;;;;;5028512;28;19953;-85
2022/10/11 21:19:16;;;;;;;19.35;8.32;;;;;;;;;;5060556;28;20051;-85
2022/10/11 21:22:59;;;;;;;17.95;7.40;;;;;;;;;;5094459;28;20060;-85
2022/10/11 21:25:42;;;;;;;19.40;8.38;;;;;;;;;;5077814;28;20070;-84
2022/10/11 21:28:24;;;;;;;19.58;7.70;;;;;;;;;;5045463;28;20079;-85
2022/10/11 21:31:11;;;;;;;16.13;8.18;;;;;;;;;;5092210;28;20044;-84
2022/10/11 21:34:22;;;;;;;16.42;7.70;;;;;;;;;;5083895;28;20055;-85
2022/10/11 21:42:40;;;;;;;13.32;6.78;;;;;;;;;;5000806;28;20154;-85
2022/10/11 21:45:36;;;;;;;14.32;7.07;;;;;;;;;;5001065;28;20136;-83
2022/10/11 21:48:18;;;;;;;15.68;7.28;;;;;;;;;;4988264;28;20053;-83
2022/10/11 21:51:30;;;;;;;14.75;6.97;;;;;;;;;;5003469;28;20170;-85
2022/10/11 21:54:18;;;;;;;18.35;7.47;;;;;;;;;;4972113;28;20507;-84
2022/10/11 21:57:09;;;;;;;14.65;7.18;;;;;;;;;;5000160;28;20046;-85
2022/10/11 22:00:24;;;;;;;15.88;7.85;;;;;;;;;;4973760;28;20050;-85
2022/10/11 22:03:12;;;;;;;20.95;8.23;;;;;;;;;;4996829;28;20050;-84
2022/10/11 22:06:02;;;;;;;23.50;7.97;;;;;;;;;;5017278;28;20424;-84
2022/10/11 22:09:33;;;;;;;18.63;8.27;;;;;;;;;;4996032;28;20096;-84
2022/10/11 22:12:16;;;;;;;17.65;7.72;;;;;;;;;;4991785;28;20066;-85
2022/10/11 22:14:52;;;;;;;23.35;9.02;;;;;;;;;;4979119;28;20137;-84
2022/10/11 22:17:34;;;;;;;18.17;8.05;;;;;;;;;;5001621;28;20057;-85
2022/10/11 22:20:33;;;;;;;20.50;7.93;;;;;;;;;;5048339;28;20049;-85
2022/10/11 22:23:17;;;;;;;21.08;8.07;;;;;;;;;;5020631;28;20496;-84
2022/10/11 22:26:05;;;;;;;24.15;9.38;;;;;;;;;;5004053;28;20063;-84
2022/10/11 22:28:46;;;;;;;20.33;8.95;;;;;;;;;;5040456;28;20053;-83
2022/10/11 22:31:16;;;;;;;27.60;8.93;;;;;;;;;;5061514;28;20053;-84
2022/10/11 22:33:59;;;;;;;16.45;7.57;;;;;;;;;;5020862;28;20052;-84
2022/10/11 22:36:40;;;;;;;16.95;8.15;;;;;;;;;;5017786;28;20057;-85
2022/10/11 22:39:22;;;;;;;17.55;7.45;;;;;;;;;;5034330;28;20048;-84
2022/10/11 22:41:54;;;;;;;16.23;7.30;;;;;;;;;;5071252;28;20142;-85
2022/10/11 22:44:30;;;;;;;19.63;7.72;;;;;;;;;;5057962;28;20085;-84
2022/10/11 22:47:36;;;;;;;23.00;8.38;;;;;;;;;;5044438;28;20044;-83
2022/10/11 22:50:04;;;;;;;17.77;7.28;;;;;;;;;;5044150;28;20066;-83
2022/10/11 22:52:38;;;;;;;18.98;7.97;;;;;;;;;;5029235;28;20052;-84
2022/10/11 22:55:27;;;;;;;18.67;7.93;;;;;;;;;;5018994;28;20211;-84
2022/10/11 22:57:58;;;;;;;15.77;6.65;;;;;;;;;;5041677;28;20045;-83
2022/10/11 23:00:28;;;;;;;20.38;7.50;;;;;;;;;;5039813;28;20041;-83
2022/10/11 23:02:59;;;;;;;11.68;5.97;;;;;;;;;;5035444;28;20045;-84
2022/10/11 23:05:41;;;;;;;14.07;5.85;;;;;;;;;;4999546;28;20513;-84
2022/10/11 23:08:12;;;;;;;11.90;6.10;;;;;;;;;;5041149;28;20045;-83
2022/10/11 23:10:40;;;;;;;14.13;5.82;;;;;;;;;;5033995;28;20057;-83
2022/10/11 23:13:22;;;;;;;16.45;6.47;;;;;;;;;;5016903;28;20084;-84
2022/10/11 23:17:29;;;;;;;14.27;6.57;;;;;;;;;;4995853;28;20038;-84
2022/10/11 23:19:57;;;;;;;13.90;6.82;;;;;;;;;;4961152;28;20078;-83
2022/10/11 23:23:19;;;;;;;11.35;6.03;;;;;;;;;;4951557;28;20065;-84
2022/10/11 23:27:39;;;;;;;14.32;6.20;;;;;;;;;;4931489;28;20059;-84
2022/10/11 23:30:56;;;;;;;9.80;5.47;;;;;;;;;;4945138;28;20568;-84
2022/10/11 23:33:50;;;;;;;10.50;5.25;;;;;;;;;;4945050;29;20174;-84
2022/10/11 23:36:42;;;;;;;11.02;5.32;;;;;;;;;;4917141;29;20044;-84
2022/10/11 23:39:18;;;;;;;12.73;6.10;;;;;;;;;;4945115;28;20055;-84
2022/10/11 23:41:59;;;;;;;12.68;5.43;;;;;;;;;;4918818;29;20062;-84
2022/10/11 23:44:27;;;;;;;11.27;5.82;;;;;;;;;;4932506;29;20082;-83
2022/10/11 23:46:59;;;;;;;11.52;5.40;;;;;;;;;;4951055;28;20546;-83
2022/10/11 23:49:28;;;;;;;10.98;5.47;;;;;;;;;;4989303;28;20046;-84
2022/10/11 23:51:56;;;;;;;11.45;5.50;;;;;;;;;;4968622;28;20175;-84
2022/10/11 23:59:05;;;;;;;9.77;5.00;;;;;;;;;;5061543;28;20076;-82
